sensor_id;sensor_type;location;lat;lon;timestamp;temperature;humidity
52387;DHT22;38317;53.084;6.960;2022-08-19T00:02:08;15.80;99.90
52387;DHT22;38317;53.084;6.960;2022-08-19T00:04:35;15.80;99.90
52387;DHT22;38317;53.084;6.960;2022-08-19T00:07:06;15.80;99.90
52387;DHT22;38317;53.084;6.960;2022-08-19T00:09:32;15.80;99.90
52387;DHT22;38317;53.084;6.960;2022-08-19T00:11:59;15.80;99.90
52387;DHT22;38317;53.084;6.960;2022-08-19T00:14:25;15.80;99.90
52387;DHT22;38317;53.084;6.960;2022-08-19T00:16:52;15.80;99.90
52387;DHT22;38317;53.084;6.960;2022-08-19T00:19:20;15.80;99.90
52387;DHT22;38317;53.084;6.960;2022-08-19T00:21:45;15.80;99.90
52387;DHT22;38317;53.084;6.960;2022-08-19T00:24:13;15.70;99.90
52387;DHT22;38317;53.084;6.960;2022-08-19T00:26:41;15.80;99.90
52387;DHT22;38317;53.084;6.960;2022-08-19T00:29:10;15.70;99.90
52387;DHT22;38317;53.084;6.960;2022-08-19T00:31:36;15.70;99.90
52387;DHT22;38317;53.084;6.960;2022-08-19T00:34:02;15.70;99.90
52387;DHT22;38317;53.084;6.960;2022-08-19T00:36:28;15.70;99.90
52387;DHT22;38317;53.084;6.960;2022-08-19T00:38:55;15.60;99.90
52387;DHT22;38317;53.084;6.960;2022-08-19T00:41:23;15.60;99.90
52387;DHT22;38317;53.084;6.960;2022-08-19T00:44:03;15.60;99.90
52387;DHT22;38317;53.084;6.960;2022-08-19T00:46:30;15.60;99.90
52387;DHT22;38317;53.084;6.960;2022-08-19T00:48:59;15.60;99.90
52387;DHT22;38317;53.084;6.960;2022-08-19T00:51:29;15.60;99.90
52387;DHT22;38317;53.084;6.960;2022-08-19T00:53:57;15.60;99.90
52387;DHT22;38317;53.084;6.960;2022-08-19T00:56:24;15.50;99.90
52387;DHT22;38317;53.084;6.960;2022-08-19T00:58:53;15.60;99.90
52387;DHT22;38317;53.084;6.960;2022-08-19T01:01:19;15.50;99.90
52387;DHT22;38317;53.084;6.960;2022-08-19T01:03:45;15.50;99.90
52387;DHT22;38317;53.084;6.960;2022-08-19T01:06:11;15.50;99.90
52387;DHT22;38317;53.084;6.960;2022-08-19T01:08:36;15.50;99.90
52387;DHT22;38317;53.084;6.960;2022-08-19T01:11:02;15.50;99.90
52387;DHT22;38317;53.084;6.960;2022-08-19T01:13:32;15.40;99.90
52387;DHT22;38317;53.084;6.960;2022-08-19T01:16:09;15.50;99.90
52387;DHT22;38317;53.084;6.960;2022-08-19T01:18:40;15.50;99.90
52387;DHT22;38317;53.084;6.960;2022-08-19T01:21:22;15.40;99.90
52387;DHT22;38317;53.084;6.960;2022-08-19T01:23:50;15.40;99.90
52387;DHT22;38317;53.084;6.960;2022-08-19T01:26:19;15.40;99.90
52387;DHT22;38317;53.084;6.960;2022-08-19T01:28:46;15.40;99.90
52387;DHT22;38317;53.084;6.960;2022-08-19T01:31:16;15.40;99.90
52387;DHT22;38317;53.084;6.960;2022-08-19T01:33:42;15.30;99.90
52387;DHT22;38317;53.084;6.960;2022-08-19T01:36:12;15.30;99.90
52387;DHT22;38317;53.084;6.960;2022-08-19T01:38:40;15.30;99.90
52387;DHT22;38317;53.084;6.960;2022-08-19T01:41:09;15.30;99.90
52387;DHT22;38317;53.084;6.960;2022-08-19T01:43:36;15.30;99.90
52387;DHT22;38317;53.084;6.960;2022-08-19T01:46:02;15.20;99.90
52387;DHT22;38317;53.084;6.960;2022-08-19T01:48:34;15.20;99.90
52387;DHT22;38317;53.084;6.960;2022-08-19T01:51:00;15.20;99.90
52387;DHT22;38317;53.084;6.960;2022-08-19T01:53:26;15.10;99.90
52387;DHT22;38317;53.084;6.960;2022-08-19T01:55:52;15.20;99.90
52387;DHT22;38317;53.084;6.960;2022-08-19T01:58:24;15.20;99.90
52387;DHT22;38317;53.084;6.960;2022-08-19T02:00:50;15.10;99.90
52387;DHT22;38317;53.084;6.960;2022-08-19T02:03:16;15.10;99.90
52387;DHT22;38317;53.084;6.960;2022-08-19T02:05:43;15.10;99.90
52387;DHT22;38317;53.084;6.960;2022-08-19T02:08:09;15.10;99.90
52387;DHT22;38317;53.084;6.960;2022-08-19T02:10:39;15.10;99.90
52387;DHT22;38317;53.084;6.960;2022-08-19T02:13:06;15.10;99.90
52387;DHT22;38317;53.084;6.960;2022-08-19T02:15:31;15.10;99.90
52387;DHT22;38317;53.084;6.960;2022-08-19T02:17:57;15.00;99.90
52387;DHT22;38317;53.084;6.960;2022-08-19T02:20:23;15.00;99.90
52387;DHT22;38317;53.084;6.960;2022-08-19T02:22:49;15.00;99.90
52387;DHT22;38317;53.084;6.960;2022-08-19T02:25:15;15.00;99.90
52387;DHT22;38317;53.084;6.960;2022-08-19T02:27:42;15.00;99.90
52387;DHT22;38317;53.084;6.960;2022-08-19T02:30:11;15.00;99.90
52387;DHT22;38317;53.084;6.960;2022-08-19T02:32:38;15.00;99.90
52387;DHT22;38317;53.084;6.960;2022-08-19T02:35:04;15.00;99.90
52387;DHT22;38317;53.084;6.960;2022-08-19T02:37:30;15.00;99.90
52387;DHT22;38317;53.084;6.960;2022-08-19T02:40:15;15.00;99.90
52387;DHT22;38317;53.084;6.960;2022-08-19T02:42:43;15.00;99.90
52387;DHT22;38317;53.084;6.960;2022-08-19T02:45:11;15.00;99.90
52387;DHT22;38317;53.084;6.960;2022-08-19T02:47:37;15.00;99.90
52387;DHT22;38317;53.084;6.960;2022-08-19T02:50:04;15.00;99.90
52387;DHT22;38317;53.084;6.960;2022-08-19T02:52:31;14.90;99.90
52387;DHT22;38317;53.084;6.960;2022-08-19T02:54:57;14.90;99.90
52387;DHT22;38317;53.084;6.960;2022-08-19T02:57:23;14.90;99.90
52387;DHT22;38317;53.084;6.960;2022-08-19T02:59:50;14.90;99.90
52387;DHT22;38317;53.084;6.960;2022-08-19T03:02:16;14.90;99.90
52387;DHT22;38317;53.084;6.960;2022-08-19T03:04:42;14.90;99.90
52387;DHT22;38317;53.084;6.960;2022-08-19T03:07:09;14.90;99.90
52387;DHT22;38317;53.084;6.960;2022-08-19T03:09:37;14.90;99.90
52387;DHT22;38317;53.084;6.960;2022-08-19T03:12:04;14.90;99.90
52387;DHT22;38317;53.084;6.960;2022-08-19T03:14:31;14.90;99.90
52387;DHT22;38317;53.084;6.960;2022-08-19T03:16:57;14.90;99.90
52387;DHT22;38317;53.084;6.960;2022-08-19T03:19:23;14.90;99.90
52387;DHT22;38317;53.084;6.960;2022-08-19T03:21:50;14.90;99.90
52387;DHT22;38317;53.084;6.960;2022-08-19T03:24:16;14.90;99.90
52387;DHT22;38317;53.084;6.960;2022-08-19T03:26:50;14.90;99.90
52387;DHT22;38317;53.084;6.960;2022-08-19T03:29:18;14.90;99.90
52387;DHT22;38317;53.084;6.960;2022-08-19T03:31:45;14.80;99.90
52387;DHT22;38317;53.084;6.960;2022-08-19T03:34:18;14.80;99.90
52387;DHT22;38317;53.084;6.960;2022-08-19T03:36:44;14.80;99.90
52387;DHT22;38317;53.084;6.960;2022-08-19T03:39:11;14.80;99.90
52387;DHT22;38317;53.084;6.960;2022-08-19T03:41:39;14.80;99.90
52387;DHT22;38317;53.084;6.960;2022-08-19T03:44:05;14.80;99.90
52387;DHT22;38317;53.084;6.960;2022-08-19T03:46:34;14.80;99.90
52387;DHT22;38317;53.084;6.960;2022-08-19T03:49:01;14.80;99.90
52387;DHT22;38317;53.084;6.960;2022-08-19T03:51:32;14.80;99.90
52387;DHT22;38317;53.084;6.960;2022-08-19T03:54:00;14.80;99.90
52387;DHT22;38317;53.084;6.960;2022-08-19T03:56:27;14.70;99.90
52387;DHT22;38317;53.084;6.960;2022-08-19T03:58:57;14.80;99.90
52387;DHT22;38317;53.084;6.960;2022-08-19T04:01:25;14.80;99.90
52387;DHT22;38317;53.084;6.960;2022-08-19T04:03:55;14.80;99.90
52387;DHT22;38317;53.084;6.960;2022-08-19T04:06:24;14.90;99.90
52387;DHT22;38317;53.084;6.960;2022-08-19T04:08:51;14.80;99.90
52387;DHT22;38317;53.084;6.960;2022-08-19T04:11:26;14.80;99.90
52387;DHT22;38317;53.084;6.960;2022-08-19T04:13:53;14.80;99.90
52387;DHT22;38317;53.084;6.960;2022-08-19T04:16:20;14.80;99.90
52387;DHT22;38317;53.084;6.960;2022-08-19T04:18:47;14.80;99.90
52387;DHT22;38317;53.084;6.960;2022-08-19T04:21:22;14.80;99.90
52387;DHT22;38317;53.084;6.960;2022-08-19T04:23:48;14.70;99.90
52387;DHT22;38317;53.084;6.960;2022-08-19T04:26:16;14.70;99.90
52387;DHT22;38317;53.084;6.960;2022-08-19T04:28:43;14.70;99.90
52387;DHT22;38317;53.084;6.960;2022-08-19T04:31:14;14.70;99.90
52387;DHT22;38317;53.084;6.960;2022-08-19T04:33:40;14.60;99.90
52387;DHT22;38317;53.084;6.960;2022-08-19T04:36:07;14.70;99.90
52387;DHT22;38317;53.084;6.960;2022-08-19T04:38:33;14.70;99.90
52387;DHT22;38317;53.084;6.960;2022-08-19T04:40:59;14.70;99.90
52387;DHT22;38317;53.084;6.960;2022-08-19T04:43:44;14.70;99.90
52387;DHT22;38317;53.084;6.960;2022-08-19T04:46:14;14.70;99.90
52387;DHT22;38317;53.084;6.960;2022-08-19T04:48:40;14.70;99.90
52387;DHT22;38317;53.084;6.960;2022-08-19T04:51:08;14.70;99.90
52387;DHT22;38317;53.084;6.960;2022-08-19T04:53:36;14.70;99.90
52387;DHT22;38317;53.084;6.960;2022-08-19T04:56:09;14.70;99.90
52387;DHT22;38317;53.084;6.960;2022-08-19T04:58:36;14.70;99.90
52387;DHT22;38317;53.084;6.960;2022-08-19T05:01:03;14.70;99.90
52387;DHT22;38317;53.084;6.960;2022-08-19T05:03:29;14.70;99.90
52387;DHT22;38317;53.084;6.960;2022-08-19T05:06:03;14.70;99.90
52387;DHT22;38317;53.084;6.960;2022-08-19T05:08:29;14.70;99.90
52387;DHT22;38317;53.084;6.960;2022-08-19T05:10:56;14.70;99.90
52387;DHT22;38317;53.084;6.960;2022-08-19T05:13:22;14.70;99.90
52387;DHT22;38317;53.084;6.960;2022-08-19T05:15:56;14.70;99.90
52387;DHT22;38317;53.084;6.960;2022-08-19T05:18:23;14.70;99.90
52387;DHT22;38317;53.084;6.960;2022-08-19T05:21:11;14.80;99.90
52387;DHT22;38317;53.084;6.960;2022-08-19T05:23:57;14.80;99.90
52387;DHT22;38317;53.084;6.960;2022-08-19T05:26:23;14.80;99.90
52387;DHT22;38317;53.084;6.960;2022-08-19T05:28:52;14.80;99.90
52387;DHT22;38317;53.084;6.960;2022-08-19T05:31:19;14.80;99.90
52387;DHT22;38317;53.084;6.960;2022-08-19T05:33:45;14.80;99.90
52387;DHT22;38317;53.084;6.960;2022-08-19T05:36:11;14.80;99.90
52387;DHT22;38317;53.084;6.960;2022-08-19T05:38:37;14.80;99.90
52387;DHT22;38317;53.084;6.960;2022-08-19T05:41:08;14.90;99.90
52387;DHT22;38317;53.084;6.960;2022-08-19T05:43:34;14.90;99.90
52387;DHT22;38317;53.084;6.960;2022-08-19T05:45:59;14.90;99.90
52387;DHT22;38317;53.084;6.960;2022-08-19T05:48:25;14.90;99.90
52387;DHT22;38317;53.084;6.960;2022-08-19T05:50:51;14.90;99.90
52387;DHT22;38317;53.084;6.960;2022-08-19T05:53:18;14.90;99.90
52387;DHT22;38317;53.084;6.960;2022-08-19T05:55:44;15.00;99.90
52387;DHT22;38317;53.084;6.960;2022-08-19T05:58:10;14.90;99.90
52387;DHT22;38317;53.084;6.960;2022-08-19T06:00:37;15.00;99.90
52387;DHT22;38317;53.084;6.960;2022-08-19T06:03:03;15.00;99.90
52387;DHT22;38317;53.084;6.960;2022-08-19T06:05:30;15.10;99.90
52387;DHT22;38317;53.084;6.960;2022-08-19T06:07:56;15.00;99.90
52387;DHT22;38317;53.084;6.960;2022-08-19T06:10:22;15.10;99.90
52387;DHT22;38317;53.084;6.960;2022-08-19T06:12:49;15.20;99.90
52387;DHT22;38317;53.084;6.960;2022-08-19T06:15:15;15.20;99.90
52387;DHT22;38317;53.084;6.960;2022-08-19T06:17:41;15.20;99.90
52387;DHT22;38317;53.084;6.960;2022-08-19T06:20:12;15.30;99.90
52387;DHT22;38317;53.084;6.960;2022-08-19T06:22:44;15.30;99.90
52387;DHT22;38317;53.084;6.960;2022-08-19T06:25:11;15.40;99.90
52387;DHT22;38317;53.084;6.960;2022-08-19T06:27:37;15.40;99.90
52387;DHT22;38317;53.084;6.960;2022-08-19T06:30:04;15.50;99.90
52387;DHT22;38317;53.084;6.960;2022-08-19T06:32:30;15.60;99.90
52387;DHT22;38317;53.084;6.960;2022-08-19T06:34:56;15.60;99.90
52387;DHT22;38317;53.084;6.960;2022-08-19T06:37:22;15.70;99.90
52387;DHT22;38317;53.084;6.960;2022-08-19T06:39:49;15.70;99.90
52387;DHT22;38317;53.084;6.960;2022-08-19T06:42:15;15.80;99.90
52387;DHT22;38317;53.084;6.960;2022-08-19T06:44:45;15.80;99.90
52387;DHT22;38317;53.084;6.960;2022-08-19T06:47:16;15.90;99.90
52387;DHT22;38317;53.084;6.960;2022-08-19T06:49:43;15.90;99.90
52387;DHT22;38317;53.084;6.960;2022-08-19T06:52:09;15.90;99.90
52387;DHT22;38317;53.084;6.960;2022-08-19T06:54:37;16.00;99.90
52387;DHT22;38317;53.084;6.960;2022-08-19T06:57:04;16.10;99.90
52387;DHT22;38317;53.084;6.960;2022-08-19T06:59:32;16.10;99.90
52387;DHT22;38317;53.084;6.960;2022-08-19T07:02:00;16.20;99.90
52387;DHT22;38317;53.084;6.960;2022-08-19T07:04:29;16.20;99.90
52387;DHT22;38317;53.084;6.960;2022-08-19T07:07:05;16.30;99.90
52387;DHT22;38317;53.084;6.960;2022-08-19T07:09:37;16.40;99.90
52387;DHT22;38317;53.084;6.960;2022-08-19T07:12:05;16.50;99.90
52387;DHT22;38317;53.084;6.960;2022-08-19T07:14:32;16.60;99.90
52387;DHT22;38317;53.084;6.960;2022-08-19T07:17:01;16.70;99.90
52387;DHT22;38317;53.084;6.960;2022-08-19T07:19:27;16.80;99.90
52387;DHT22;38317;53.084;6.960;2022-08-19T07:21:54;16.80;99.90
52387;DHT22;38317;53.084;6.960;2022-08-19T07:24:23;17.00;99.90
52387;DHT22;38317;53.084;6.960;2022-08-19T07:26:50;17.00;99.90
52387;DHT22;38317;53.084;6.960;2022-08-19T07:29:17;17.10;99.90
52387;DHT22;38317;53.084;6.960;2022-08-19T07:31:43;17.20;99.90
52387;DHT22;38317;53.084;6.960;2022-08-19T07:34:11;17.40;99.90
52387;DHT22;38317;53.084;6.960;2022-08-19T07:36:40;17.50;99.90
52387;DHT22;38317;53.084;6.960;2022-08-19T07:39:20;17.70;99.90
52387;DHT22;38317;53.084;6.960;2022-08-19T07:41:47;17.90;99.90
52387;DHT22;38317;53.084;6.960;2022-08-19T07:44:14;18.10;99.90
52387;DHT22;38317;53.084;6.960;2022-08-19T07:46:44;18.50;99.90
52387;DHT22;38317;53.084;6.960;2022-08-19T07:49:10;18.70;99.90
52387;DHT22;38317;53.084;6.960;2022-08-19T07:51:40;19.00;99.90
52387;DHT22;38317;53.084;6.960;2022-08-19T07:54:05;19.30;99.90
52387;DHT22;38317;53.084;6.960;2022-08-19T07:56:31;19.60;99.90
52387;DHT22;38317;53.084;6.960;2022-08-19T07:58:57;19.90;99.90
52387;DHT22;38317;53.084;6.960;2022-08-19T08:01:25;20.10;99.90
52387;DHT22;38317;53.084;6.960;2022-08-19T08:03:53;20.30;99.90
52387;DHT22;38317;53.084;6.960;2022-08-19T08:06:38;20.50;99.90
52387;DHT22;38317;53.084;6.960;2022-08-19T08:09:29;20.70;99.90
52387;DHT22;38317;53.084;6.960;2022-08-19T08:12:01;20.90;99.90
52387;DHT22;38317;53.084;6.960;2022-08-19T08:14:31;21.20;99.90
52387;DHT22;38317;53.084;6.960;2022-08-19T08:16:58;21.40;99.90
52387;DHT22;38317;53.084;6.960;2022-08-19T08:19:26;21.70;99.90
52387;DHT22;38317;53.084;6.960;2022-08-19T08:21:57;21.90;99.90
52387;DHT22;38317;53.084;6.960;2022-08-19T08:24:24;22.10;99.90
52387;DHT22;38317;53.084;6.960;2022-08-19T08:26:50;22.30;99.90
52387;DHT22;38317;53.084;6.960;2022-08-19T08:29:15;22.50;99.90
52387;DHT22;38317;53.084;6.960;2022-08-19T08:31:43;22.80;99.90
52387;DHT22;38317;53.084;6.960;2022-08-19T08:34:10;23.00;99.90
52387;DHT22;38317;53.084;6.960;2022-08-19T08:36:41;23.10;99.90
52387;DHT22;38317;53.084;6.960;2022-08-19T08:39:15;23.30;99.90
52387;DHT22;38317;53.084;6.960;2022-08-19T08:47:11;23.70;99.90
52387;DHT22;38317;53.084;6.960;2022-08-19T08:50:31;23.80;99.90
52387;DHT22;38317;53.084;6.960;2022-08-19T08:52:43;24.00;99.90
52387;DHT22;38317;53.084;6.960;2022-08-19T08:55:19;24.10;99.90
52387;DHT22;38317;53.084;6.960;2022-08-19T09:02:46;24.60;99.90
52387;DHT22;38317;53.084;6.960;2022-08-19T09:05:13;24.70;99.90
52387;DHT22;38317;53.084;6.960;2022-08-19T09:08:13;24.80;99.90
52387;DHT22;38317;53.084;6.960;2022-08-19T09:10:54;24.90;99.90
52387;DHT22;38317;53.084;6.960;2022-08-19T09:16:12;25.10;99.90
52387;DHT22;38317;53.084;6.960;2022-08-19T09:18:47;25.10;99.90
52387;DHT22;38317;53.084;6.960;2022-08-19T09:21:15;25.10;99.90
52387;DHT22;38317;53.084;6.960;2022-08-19T09:23:41;25.20;99.90
52387;DHT22;38317;53.084;6.960;2022-08-19T09:26:12;25.30;99.90
52387;DHT22;38317;53.084;6.960;2022-08-19T09:28:42;25.50;99.90
52387;DHT22;38317;53.084;6.960;2022-08-19T09:31:12;25.60;99.90
52387;DHT22;38317;53.084;6.960;2022-08-19T09:33:38;25.70;99.90
52387;DHT22;38317;53.084;6.960;2022-08-19T09:36:09;25.90;99.90
52387;DHT22;38317;53.084;6.960;2022-08-19T09:38:36;26.00;99.90
52387;DHT22;38317;53.084;6.960;2022-08-19T09:41:14;26.20;99.90
52387;DHT22;38317;53.084;6.960;2022-08-19T09:43:42;26.40;99.90
52387;DHT22;38317;53.084;6.960;2022-08-19T09:46:09;26.50;99.90
52387;DHT22;38317;53.084;6.960;2022-08-19T09:48:36;26.40;99.90
52387;DHT22;38317;53.084;6.960;2022-08-19T09:51:11;26.60;99.90
52387;DHT22;38317;53.084;6.960;2022-08-19T09:53:42;26.60;99.90
52387;DHT22;38317;53.084;6.960;2022-08-19T09:56:09;26.70;99.90
52387;DHT22;38317;53.084;6.960;2022-08-19T09:58:36;26.80;99.90
52387;DHT22;38317;53.084;6.960;2022-08-19T10:01:03;26.90;99.90
52387;DHT22;38317;53.084;6.960;2022-08-19T10:03:32;27.00;99.90
52387;DHT22;38317;53.084;6.960;2022-08-19T10:06:00;27.00;99.90
52387;DHT22;38317;53.084;6.960;2022-08-19T10:08:36;27.10;99.90
52387;DHT22;38317;53.084;6.960;2022-08-19T10:11:03;27.20;99.90
52387;DHT22;38317;53.084;6.960;2022-08-19T10:13:30;27.30;99.90
52387;DHT22;38317;53.084;6.960;2022-08-19T10:16:09;27.30;99.90
52387;DHT22;38317;53.084;6.960;2022-08-19T10:18:37;27.30;99.90
52387;DHT22;38317;53.084;6.960;2022-08-19T10:21:09;27.30;99.90
52387;DHT22;38317;53.084;6.960;2022-08-19T10:23:37;27.20;99.90
52387;DHT22;38317;53.084;6.960;2022-08-19T10:26:05;27.20;99.90
52387;DHT22;38317;53.084;6.960;2022-08-19T10:28:35;27.20;99.90
52387;DHT22;38317;53.084;6.960;2022-08-19T10:31:08;27.30;99.90
52387;DHT22;38317;53.084;6.960;2022-08-19T10:33:35;27.30;99.90
52387;DHT22;38317;53.084;6.960;2022-08-19T10:36:11;27.40;99.90
52387;DHT22;38317;53.084;6.960;2022-08-19T10:38:37;27.50;99.90
52387;DHT22;38317;53.084;6.960;2022-08-19T10:41:12;27.60;99.90
52387;DHT22;38317;53.084;6.960;2022-08-19T10:43:38;27.70;99.90
52387;DHT22;38317;53.084;6.960;2022-08-19T10:46:10;27.70;99.90
52387;DHT22;38317;53.084;6.960;2022-08-19T10:48:36;27.80;99.90
52387;DHT22;38317;53.084;6.960;2022-08-19T10:51:03;27.90;99.90
52387;DHT22;38317;53.084;6.960;2022-08-19T10:53:48;28.00;99.90
52387;DHT22;38317;53.084;6.960;2022-08-19T10:56:14;28.10;99.90
52387;DHT22;38317;53.084;6.960;2022-08-19T10:58:59;28.20;99.90
52387;DHT22;38317;53.084;6.960;2022-08-19T11:01:26;28.10;99.00
52387;DHT22;38317;53.084;6.960;2022-08-19T11:03:52;28.10;99.20
52387;DHT22;38317;53.084;6.960;2022-08-19T11:06:18;28.00;98.30
52387;DHT22;38317;53.084;6.960;2022-08-19T11:08:45;28.00;98.90
52387;DHT22;38317;53.084;6.960;2022-08-19T11:11:11;28.00;99.30
52387;DHT22;38317;53.084;6.960;2022-08-19T11:13:40;28.10;99.50
52387;DHT22;38317;53.084;6.960;2022-08-19T11:16:09;28.10;99.60
52387;DHT22;38317;53.084;6.960;2022-08-19T11:18:41;28.20;99.90
52387;DHT22;38317;53.084;6.960;2022-08-19T11:21:18;28.40;99.90
52387;DHT22;38317;53.084;6.960;2022-08-19T11:23:46;28.50;99.90
52387;DHT22;38317;53.084;6.960;2022-08-19T11:26:13;28.60;99.90
52387;DHT22;38317;53.084;6.960;2022-08-19T11:28:39;28.30;99.90
52387;DHT22;38317;53.084;6.960;2022-08-19T11:31:17;28.00;99.90
52387;DHT22;38317;53.084;6.960;2022-08-19T11:33:44;27.80;99.90
52387;DHT22;38317;53.084;6.960;2022-08-19T11:36:09;27.50;99.90
52387;DHT22;38317;53.084;6.960;2022-08-19T11:38:36;27.20;99.90
52387;DHT22;38317;53.084;6.960;2022-08-19T11:41:05;26.90;99.90
52387;DHT22;38317;53.084;6.960;2022-08-19T11:43:31;26.70;99.90
52387;DHT22;38317;53.084;6.960;2022-08-19T11:45:57;26.40;99.90
52387;DHT22;38317;53.084;6.960;2022-08-19T11:48:24;26.40;99.90
52387;DHT22;38317;53.084;6.960;2022-08-19T11:50:51;26.10;99.90
52387;DHT22;38317;53.084;6.960;2022-08-19T11:53:18;26.00;99.90
52387;DHT22;38317;53.084;6.960;2022-08-19T11:55:49;26.00;99.90
52387;DHT22;38317;53.084;6.960;2022-08-19T11:58:17;25.90;99.90
52387;DHT22;38317;53.084;6.960;2022-08-19T12:00:43;26.00;99.90
52387;DHT22;38317;53.084;6.960;2022-08-19T12:03:12;26.30;99.90
52387;DHT22;38317;53.084;6.960;2022-08-19T12:05:39;26.40;99.90
52387;DHT22;38317;53.084;6.960;2022-08-19T12:08:05;26.70;99.90
52387;DHT22;38317;53.084;6.960;2022-08-19T12:10:32;26.90;99.90
52387;DHT22;38317;53.084;6.960;2022-08-19T12:12:58;26.90;99.90
52387;DHT22;38317;53.084;6.960;2022-08-19T12:15:23;26.90;99.90
52387;DHT22;38317;53.084;6.960;2022-08-19T12:17:49;26.70;99.90
52387;DHT22;38317;53.084;6.960;2022-08-19T12:20:15;26.50;99.90
52387;DHT22;38317;53.084;6.960;2022-08-19T12:22:42;26.20;99.90
52387;DHT22;38317;53.084;6.960;2022-08-19T12:25:10;26.00;99.90
52387;DHT22;38317;53.084;6.960;2022-08-19T12:27:38;25.90;99.90
52387;DHT22;38317;53.084;6.960;2022-08-19T12:30:06;25.80;99.90
52387;DHT22;38317;53.084;6.960;2022-08-19T12:32:33;25.60;99.90
52387;DHT22;38317;53.084;6.960;2022-08-19T12:34:59;25.50;99.90
52387;DHT22;38317;53.084;6.960;2022-08-19T12:37:24;25.50;99.90
52387;DHT22;38317;53.084;6.960;2022-08-19T12:39:50;25.40;99.90
52387;DHT22;38317;53.084;6.960;2022-08-19T12:42:16;25.40;99.90
52387;DHT22;38317;53.084;6.960;2022-08-19T12:44:43;25.30;99.90
52387;DHT22;38317;53.084;6.960;2022-08-19T12:47:12;25.20;99.90
52387;DHT22;38317;53.084;6.960;2022-08-19T12:49:39;25.30;99.90
52387;DHT22;38317;53.084;6.960;2022-08-19T12:52:06;25.20;99.90
52387;DHT22;38317;53.084;6.960;2022-08-19T12:54:34;25.20;99.90
52387;DHT22;38317;53.084;6.960;2022-08-19T12:57:00;25.20;99.90
52387;DHT22;38317;53.084;6.960;2022-08-19T12:59:29;25.20;99.90
52387;DHT22;38317;53.084;6.960;2022-08-19T13:01:55;25.40;99.90
52387;DHT22;38317;53.084;6.960;2022-08-19T13:04:21;25.60;99.90
52387;DHT22;38317;53.084;6.960;2022-08-19T13:06:47;25.60;99.90
52387;DHT22;38317;53.084;6.960;2022-08-19T13:09:12;25.50;99.90
52387;DHT22;38317;53.084;6.960;2022-08-19T13:11:38;25.50;99.90
52387;DHT22;38317;53.084;6.960;2022-08-19T13:14:04;25.40;99.90
52387;DHT22;38317;53.084;6.960;2022-08-19T13:16:30;25.40;99.90
52387;DHT22;38317;53.084;6.960;2022-08-19T13:18:57;25.40;99.90
52387;DHT22;38317;53.084;6.960;2022-08-19T13:21:26;25.30;99.90
52387;DHT22;38317;53.084;6.960;2022-08-19T13:23:53;25.30;99.90
52387;DHT22;38317;53.084;6.960;2022-08-19T13:26:20;25.20;99.90
52387;DHT22;38317;53.084;6.960;2022-08-19T13:28:46;25.10;99.90
52387;DHT22;38317;53.084;6.960;2022-08-19T13:31:33;25.10;99.90
52387;DHT22;38317;53.084;6.960;2022-08-19T13:34:25;25.00;99.90
52387;DHT22;38317;53.084;6.960;2022-08-19T13:36:52;25.00;99.90
52387;DHT22;38317;53.084;6.960;2022-08-19T13:39:19;25.00;99.90
52387;DHT22;38317;53.084;6.960;2022-08-19T13:41:46;25.00;99.90
52387;DHT22;38317;53.084;6.960;2022-08-19T13:44:14;25.10;99.90
52387;DHT22;38317;53.084;6.960;2022-08-19T13:46:41;25.10;99.90
52387;DHT22;38317;53.084;6.960;2022-08-19T13:49:13;25.10;99.90
52387;DHT22;38317;53.084;6.960;2022-08-19T13:51:43;25.30;99.90
52387;DHT22;38317;53.084;6.960;2022-08-19T13:54:10;25.50;99.90
52387;DHT22;38317;53.084;6.960;2022-08-19T13:56:41;25.80;99.90
52387;DHT22;38317;53.084;6.960;2022-08-19T13:59:08;26.00;99.90
52387;DHT22;38317;53.084;6.960;2022-08-19T14:01:33;26.20;99.90
52387;DHT22;38317;53.084;6.960;2022-08-19T14:04:00;26.30;99.90
52387;DHT22;38317;53.084;6.960;2022-08-19T14:06:26;26.30;99.90
52387;DHT22;38317;53.084;6.960;2022-08-19T14:08:52;26.30;99.90
52387;DHT22;38317;53.084;6.960;2022-08-19T14:11:18;26.40;99.90
52387;DHT22;38317;53.084;6.960;2022-08-19T14:13:44;26.40;99.90
52387;DHT22;38317;53.084;6.960;2022-08-19T14:16:12;26.40;99.90
52387;DHT22;38317;53.084;6.960;2022-08-19T14:18:38;26.30;99.90
52387;DHT22;38317;53.084;6.960;2022-08-19T14:21:05;26.20;99.90
52387;DHT22;38317;53.084;6.960;2022-08-19T14:23:32;26.10;99.90
52387;DHT22;38317;53.084;6.960;2022-08-19T14:26:08;26.10;99.90
52387;DHT22;38317;53.084;6.960;2022-08-19T14:28:35;26.00;99.90
52387;DHT22;38317;53.084;6.960;2022-08-19T14:31:01;25.90;99.90
52387;DHT22;38317;53.084;6.960;2022-08-19T14:33:26;25.90;99.90
52387;DHT22;38317;53.084;6.960;2022-08-19T14:35:52;25.70;99.90
52387;DHT22;38317;53.084;6.960;2022-08-19T14:38:18;25.60;99.90
52387;DHT22;38317;53.084;6.960;2022-08-19T14:40:45;25.50;99.90
52387;DHT22;38317;53.084;6.960;2022-08-19T14:43:11;25.40;99.90
52387;DHT22;38317;53.084;6.960;2022-08-19T14:45:38;25.40;99.90
52387;DHT22;38317;53.084;6.960;2022-08-19T14:48:06;25.40;99.90
52387;DHT22;38317;53.084;6.960;2022-08-19T14:50:33;25.30;99.90
52387;DHT22;38317;53.084;6.960;2022-08-19T14:53:02;25.40;99.90
52387;DHT22;38317;53.084;6.960;2022-08-19T14:55:29;25.30;99.90
52387;DHT22;38317;53.084;6.960;2022-08-19T14:57:55;25.20;99.90
52387;DHT22;38317;53.084;6.960;2022-08-19T15:00:21;25.20;99.90
52387;DHT22;38317;53.084;6.960;2022-08-19T15:02:49;25.20;99.90
52387;DHT22;38317;53.084;6.960;2022-08-19T15:05:15;25.20;99.90
52387;DHT22;38317;53.084;6.960;2022-08-19T15:07:41;25.10;99.90
52387;DHT22;38317;53.084;6.960;2022-08-19T15:10:08;25.20;99.90
52387;DHT22;38317;53.084;6.960;2022-08-19T15:12:35;25.20;99.90
52387;DHT22;38317;53.084;6.960;2022-08-19T15:15:01;25.20;99.90
52387;DHT22;38317;53.084;6.960;2022-08-19T15:17:27;25.20;99.90
52387;DHT22;38317;53.084;6.960;2022-08-19T15:19:55;25.20;99.90
52387;DHT22;38317;53.084;6.960;2022-08-19T15:22:21;25.10;99.90
52387;DHT22;38317;53.084;6.960;2022-08-19T15:24:47;25.10;99.90
52387;DHT22;38317;53.084;6.960;2022-08-19T15:27:13;25.00;99.90
52387;DHT22;38317;53.084;6.960;2022-08-19T15:29:39;24.90;99.90
52387;DHT22;38317;53.084;6.960;2022-08-19T15:32:07;24.90;99.90
52387;DHT22;38317;53.084;6.960;2022-08-19T15:34:33;24.80;99.90
52387;DHT22;38317;53.084;6.960;2022-08-19T15:37:00;24.70;99.90
52387;DHT22;38317;53.084;6.960;2022-08-19T15:39:27;24.70;99.90
52387;DHT22;38317;53.084;6.960;2022-08-19T15:41:52;24.60;99.90
52387;DHT22;38317;53.084;6.960;2022-08-19T15:44:19;24.50;99.90
52387;DHT22;38317;53.084;6.960;2022-08-19T15:46:47;24.50;99.90
52387;DHT22;38317;53.084;6.960;2022-08-19T15:49:15;24.40;99.90
52387;DHT22;38317;53.084;6.960;2022-08-19T15:51:44;24.40;99.90